Time;durP1;ratioP1;P1;durP2;ratioP2;P2;SDS_P1;SDS_P2;PMS_P1;PMS_P2;Temp;Humidity;BMP_temperature;BMP_pressure;BME280_temperature;BME280_humidity;BME280_pressure;Samples;Min_cycle;Max_cycle;Signal;HPM_P1;HPM_P2
2021/11/03 00:01:22;;;;;;;2.83;2.20;;;8.20;99.90;;;8.96;100.00;98852.47;5032034;28;20198;-61
2021/11/03 00:03:52;;;;;;;2.67;2.40;;;8.10;99.90;;;9.05;100.00;98850.22;5032213;28;20198;-61
2021/11/03 00:06:24;;;;;;;3.77;2.50;;;8.10;99.90;;;8.83;100.00;98847.38;5032140;28;20187;-61
2021/11/03 00:08:54;;;;;;;2.83;2.30;;;8.10;99.90;;;8.78;100.00;98849.97;5032022;28;20214;-62
2021/11/03 00:11:23;;;;;;;3.30;2.57;;;8.10;99.90;;;8.73;100.00;98849.09;5031863;28;20207;-61
2021/11/03 00:13:51;;;;;;;3.13;2.83;;;8.00;99.90;;;8.90;100.00;98845.38;5032177;28;20297;-63
2021/11/03 00:16:20;;;;;;;2.70;2.50;;;8.00;99.90;;;8.83;100.00;98847.38;5031970;28;20202;-62
2021/11/03 00:18:48;;;;;;;3.63;2.63;;;8.00;99.90;;;8.75;100.00;98846.94;5032130;28;20198;-62
2021/11/03 00:21:16;;;;;;;3.00;2.70;;;8.00;99.90;;;8.61;100.00;98846.41;5033873;28;20198;-62
2021/11/03 00:23:45;;;;;;;3.40;2.57;;;7.90;99.90;;;8.80;100.00;98841.66;5035652;28;20233;-61
2021/11/03 00:26:14;;;;;;;3.33;2.43;;;7.90;99.90;;;8.50;100.00;98840.06;5035237;28;20234;-61
2021/11/03 00:28:42;;;;;;;3.10;2.80;;;7.80;99.90;;;8.27;100.00;98836.63;5035561;28;20202;-61
2021/11/03 00:31:10;;;;;;;3.10;2.80;;;7.70;99.90;;;8.14;100.00;98829.63;5035219;28;20295;-61
2021/11/03 00:33:39;;;;;;;3.00;2.80;;;7.60;99.90;;;8.13;100.00;98828.00;5035107;28;20206;-62
2021/11/03 00:36:07;;;;;;;3.37;2.80;;;7.60;99.90;;;8.10;100.00;98835.72;5035109;28;20676;-62
2021/11/03 00:38:37;;;;;;;2.83;2.63;;;7.50;99.90;;;8.01;100.00;98826.38;5035390;28;20209;-62
2021/11/03 00:41:06;;;;;;;3.13;2.83;;;7.40;99.90;;;8.05;100.00;98824.88;5035330;28;20271;-61
2021/11/03 00:43:36;;;;;;;3.00;2.70;;;7.40;99.90;;;7.95;100.00;98819.28;5035238;28;20284;-62
2021/11/03 00:46:05;;;;;;;3.90;2.70;;;7.30;99.90;;;7.79;100.00;98822.69;5035154;28;20189;-61
2021/11/03 00:48:34;;;;;;;3.10;2.80;;;7.20;99.90;;;7.69;100.00;98827.81;5035262;28;20206;-61
2021/11/03 00:51:03;;;;;;;3.93;3.23;;;7.20;99.90;;;7.78;100.00;98824.53;5035054;28;20289;-61
2021/11/03 00:53:31;;;;;;;3.37;3.07;;;7.10;99.90;;;7.75;100.00;98826.88;5034661;28;20260;-61
2021/11/03 00:55:59;;;;;;;4.53;3.03;;;7.10;99.90;;;7.63;100.00;98826.88;5034896;28;20316;-61
2021/11/03 00:58:27;;;;;;;3.90;3.40;;;7.00;99.90;;;7.68;100.00;98835.03;5034870;28;20248;-62
2021/11/03 01:00:56;;;;;;;4.00;3.03;;;7.00;99.90;;;7.57;100.00;98827.00;5034812;28;20539;-62
2021/11/03 01:03:24;;;;;;;3.53;3.13;;;6.90;99.90;;;7.51;100.00;98822.59;5035004;28;20205;-61
2021/11/03 01:05:52;;;;;;;3.33;3.03;;;6.90;99.90;;;7.61;100.00;98822.81;5035142;28;20282;-62
2021/11/03 01:08:21;;;;;;;3.50;3.20;;;6.90;99.90;;;7.69;100.00;98817.09;5034653;28;20238;-62
2021/11/03 01:10:53;;;;;;;3.20;2.90;;;6.90;99.90;;;7.43;100.00;98808.47;5034598;28;20721;-61
2021/11/03 01:13:27;;;;;;;4.30;3.00;;;6.90;99.90;;;7.33;100.00;98812.78;5034695;28;20293;-63
2021/11/03 01:15:58;;;;;;;3.33;3.03;;;6.80;99.90;;;7.24;100.00;98816.84;5034434;28;20282;-62
2021/11/03 01:18:27;;;;;;;3.33;3.03;;;6.70;99.90;;;7.28;100.00;98820.69;5034707;28;20267;-63
2021/11/03 01:20:57;;;;;;;4.27;2.93;;;6.70;99.90;;;7.23;100.00;98833.97;5034557;28;20298;-62
2021/11/03 01:23:28;;;;;;;3.40;3.10;;;6.60;99.90;;;7.25;100.00;98837.22;5034458;28;20202;-62
2021/11/03 01:25:59;;;;;;;5.10;3.40;;;6.70;99.90;;;7.25;100.00;98845.25;5034219;28;20946;-61
2021/11/03 01:28:27;;;;;;;3.47;3.17;;;6.60;99.90;;;7.17;100.00;98845.59;5034742;28;20229;-61
2021/11/03 01:30:57;;;;;;;3.70;3.40;;;6.60;99.90;;;7.21;100.00;98855.63;5034254;28;20286;-63
2021/11/03 01:33:25;;;;;;;3.87;3.47;;;6.60;99.90;;;7.39;100.00;98858.19;5034099;28;20316;-62
2021/11/03 01:35:53;;;;;;;4.33;3.93;;;6.70;99.90;;;7.78;100.00;98861.25;5034306;28;20289;-66
2021/11/03 01:38:21;;;;;;;3.73;3.43;;;6.80;99.90;;;7.86;100.00;98866.28;5034289;28;20647;-61
2021/11/03 01:40:51;;;;;;;4.77;3.90;;;6.90;99.90;;;7.80;100.00;98864.50;5034000;28;20241;-63
2021/11/03 01:43:40;;;;;;;3.90;3.50;;;7.00;99.90;;;7.90;100.00;98860.19;5034091;28;20305;-63
2021/11/03 01:46:31;;;;;;;4.50;3.90;;;7.10;99.90;;;8.05;100.00;98859.72;5033914;28;20189;-61
2021/11/03 01:49:02;;;;;;;5.93;3.80;;;7.20;99.90;;;8.22;100.00;98868.69;5034091;28;20648;-61
2021/11/03 01:51:39;;;;;;;3.80;3.10;;;7.20;99.90;;;8.30;100.00;98861.09;5033729;28;20635;-62
2021/11/03 01:54:13;;;;;;;4.17;3.63;;;7.30;99.90;;;8.48;100.00;98858.25;5033798;28;20210;-61
2021/11/03 01:56:41;;;;;;;5.60;3.53;;;7.40;99.90;;;8.78;100.00;98857.22;5033475;28;20701;-61
2021/11/03 01:59:21;;;;;;;4.97;3.43;;;7.60;99.90;;;8.48;100.00;98849.38;5033682;28;20194;-61
2021/11/03 02:01:51;;;;;;;3.70;3.40;;;7.60;99.90;;;8.38;100.00;98843.81;5033404;28;20197;-62
2021/11/03 02:04:20;;;;;;;3.43;3.03;;;7.60;99.90;;;8.20;100.00;98835.91;5033488;28;20277;-63
2021/11/03 02:06:49;;;;;;;4.97;3.57;;;7.60;99.90;;;8.16;100.00;98842.78;5033404;28;20214;-62
2021/11/03 02:09:17;;;;;;;3.67;3.30;;;7.50;99.90;;;8.06;100.00;98851.44;5033196;28;20736;-62
2021/11/03 02:11:50;;;;;;;7.23;4.23;;;7.40;99.90;;;8.06;100.00;98839.91;5033659;28;20179;-61
2021/11/03 02:14:19;;;;;;;3.50;3.20;;;7.40;99.90;;;8.13;100.00;98846.78;5033328;28;20226;-62
2021/11/03 02:16:52;;;;;;;3.33;3.03;;;7.40;99.90;;;8.06;100.00;98837.22;5033562;28;20642;-61
2021/11/03 02:19:27;;;;;;;3.30;3.00;;;7.30;99.90;;;7.92;100.00;98839.34;5033450;28;20193;-62
2021/11/03 02:22:04;;;;;;;4.60;3.67;;;7.30;99.90;;;8.43;100.00;98838.56;5033402;28;20603;-63
2021/11/03 02:24:44;;;;;;;3.03;2.70;;;7.40;99.90;;;8.46;100.00;98838.91;5033516;28;20183;-62
2021/11/03 02:27:16;;;;;;;3.00;2.70;;;7.40;99.90;;;8.32;100.00;98829.47;5033679;28;20197;-61
2021/11/03 02:29:44;;;;;;;3.10;2.80;;;7.40;99.90;;;8.44;100.00;98832.13;5032953;28;20280;-63
2021/11/03 02:32:18;;;;;;;2.63;2.43;;;7.50;99.90;;;8.23;100.00;98830.94;5032809;28;20229;-61
2021/11/03 02:34:47;;;;;;;3.37;2.50;;;7.50;99.90;;;8.60;100.00;98823.31;5033144;28;20269;-61
2021/11/03 02:37:50;;;;;;;2.47;2.27;;;7.50;99.90;;;8.34;100.00;98829.25;5033038;28;20234;-62
2021/11/03 02:40:32;;;;;;;3.07;2.27;;;7.50;99.90;;;8.23;100.00;98814.84;5032357;28;20212;-62
2021/11/03 02:43:06;;;;;;;2.40;2.20;;;7.50;99.90;;;8.25;100.00;98819.94;5033082;28;20530;-62
2021/11/03 02:45:42;;;;;;;2.30;1.90;;;7.50;99.90;;;8.44;100.00;98813.34;5032298;28;20706;-62
2021/11/03 02:48:11;;;;;;;2.73;2.30;;;7.50;99.90;;;8.40;100.00;98822.94;5032927;28;20186;-62
2021/11/03 02:50:55;;;;;;;2.63;2.27;;;7.50;99.90;;;8.45;100.00;98820.34;5032710;28;20736;-61
2021/11/03 02:53:24;;;;;;;3.23;2.27;;;7.50;99.90;;;8.32;100.00;98817.97;5032524;28;20238;-61
2021/11/03 02:55:53;;;;;;;2.60;2.40;;;7.50;99.90;;;8.21;100.00;98822.25;5032343;28;20292;-62
2021/11/03 02:58:23;;;;;;;2.50;2.30;;;7.50;99.90;;;7.98;100.00;98827.66;5032866;28;20188;-61
2021/11/03 03:00:54;;;;;;;2.50;2.30;;;7.40;99.90;;;7.92;100.00;98831.28;5032354;28;20296;-61
2021/11/03 03:03:23;;;;;;;2.30;2.10;;;7.30;99.90;;;8.04;100.00;98829.41;5032419;28;20575;-62
2021/11/03 03:06:01;;;;;;;2.23;2.03;;;7.30;99.90;;;8.00;100.00;98838.97;5032690;28;20241;-61
2021/11/03 03:08:30;;;;;;;3.47;2.20;;;7.30;99.90;;;7.97;100.00;98839.44;5032282;28;20186;-61
2021/11/03 03:10:58;;;;;;;2.40;1.90;;;7.20;99.90;;;7.95;100.00;98835.38;5032634;28;20302;-62
2021/11/03 03:13:27;;;;;;;2.83;2.50;;;7.20;99.90;;;8.01;100.00;98829.88;5032517;28;20222;-62
2021/11/03 03:15:55;;;;;;;2.40;2.20;;;7.20;99.90;;;8.47;100.00;98829.78;5032162;28;20728;-61
2021/11/03 03:18:23;;;;;;;2.30;2.10;;;7.40;99.90;;;8.33;100.00;98830.31;5032213;28;20205;-62
2021/11/03 03:20:51;;;;;;;2.47;2.27;;;7.40;99.90;;;8.29;100.00;98835.31;5032309;28;20298;-61
2021/11/03 03:23:38;;;;;;;2.47;2.27;;;7.40;99.90;;;8.11;100.00;98831.97;5032185;28;20280;-61
2021/11/03 03:26:09;;;;;;;2.67;2.47;;;7.40;99.90;;;8.28;100.00;98827.53;5032545;28;20204;-62
2021/11/03 03:28:40;;;;;;;1.93;1.70;;;7.40;99.90;;;8.12;100.00;98820.16;5032641;28;20591;-62
2021/11/03 03:31:12;;;;;;;2.33;2.07;;;7.40;99.90;;;7.90;100.00;98832.59;5032512;28;20209;-61
2021/11/03 03:33:44;;;;;;;2.30;2.10;;;7.30;99.90;;;7.66;100.00;98831.75;5032508;28;20297;-62
2021/11/03 03:36:12;;;;;;;3.03;2.33;;;7.20;99.90;;;7.67;100.00;98832.59;5032140;28;20896;-62
2021/11/03 03:38:40;;;;;;;3.27;2.17;;;7.10;99.90;;;7.47;100.00;98821.41;5032001;28;20300;-61
2021/11/03 03:41:09;;;;;;;2.47;2.27;;;7.00;99.90;;;7.52;100.00;98818.84;5032509;28;20263;-62
2021/11/03 03:43:39;;;;;;;3.10;2.80;;;6.90;99.90;;;7.34;100.00;98825.09;5032109;28;20651;-60
2021/11/03 03:46:08;;;;;;;3.23;2.40;;;6.80;99.90;;;7.23;100.00;98823.25;5032291;28;20186;-62
2021/11/03 03:48:37;;;;;;;3.53;2.43;;;6.70;99.90;;;7.11;100.00;98827.78;5032482;28;20317;-62
2021/11/03 03:51:06;;;;;;;2.47;2.27;;;6.60;99.90;;;7.06;100.00;98830.31;5032107;28;20298;-62
2021/11/03 03:53:35;;;;;;;2.67;2.20;;;6.50;99.90;;;7.09;100.00;98833.34;5032116;28;20310;-62
2021/11/03 03:56:11;;;;;;;2.40;2.20;;;6.60;99.90;;;6.96;100.00;98836.25;5032988;28;20229;-61
2021/11/03 03:58:43;;;;;;;2.60;2.40;;;6.40;99.90;;;7.00;100.00;98839.28;5036155;28;20218;-61
2021/11/03 04:01:13;;;;;;;2.47;2.23;;;6.40;99.90;;;6.90;100.00;98833.66;5035769;28;20194;-61
2021/11/03 04:03:42;;;;;;;2.53;2.33;;;6.40;99.90;;;6.82;100.00;98825.94;5035711;28;20205;-62
2021/11/03 04:06:11;;;;;;;2.53;2.33;;;6.30;99.90;;;6.78;100.00;98824.78;5035916;28;20309;-61
2021/11/03 04:08:39;;;;;;;2.57;2.37;;;6.20;99.90;;;6.84;100.00;98826.53;5035421;28;20309;-61
2021/11/03 04:11:09;;;;;;;2.67;2.47;;;6.20;99.90;;;6.82;100.00;98829.44;5035803;28;20217;-62
2021/11/03 04:13:39;;;;;;;3.93;2.40;;;6.20;99.90;;;6.70;100.00;98833.13;5035727;28;20233;-62
2021/11/03 04:16:08;;;;;;;2.80;2.60;;;6.20;99.90;;;6.74;100.00;98827.09;5035598;28;20666;-62
2021/11/03 04:18:36;;;;;;;3.10;2.70;;;6.10;99.90;;;6.75;100.00;98828.72;5035767;28;20202;-61
2021/11/03 04:21:05;;;;;;;3.10;2.80;;;6.10;99.90;;;6.91;100.00;98835.28;5035655;28;20202;-62
2021/11/03 04:23:35;;;;;;;3.20;2.90;;;6.20;99.90;;;6.89;100.00;98832.84;5035671;28;20235;-61
2021/11/03 04:26:03;;;;;;;2.80;2.60;;;6.20;99.90;;;6.92;100.00;98831.56;5035375;28;20293;-61
2021/11/03 04:28:31;;;;;;;3.93;2.90;;;6.20;99.90;;;6.87;100.00;98831.44;5035397;28;20769;-61
2021/11/03 04:31:00;;;;;;;3.13;2.70;;;6.20;99.90;;;6.79;100.00;98831.75;5035686;28;20205;-61
2021/11/03 04:33:30;;;;;;;3.07;2.70;;;6.20;99.90;;;7.07;100.00;98840.78;5035100;28;20216;-62
2021/11/03 04:35:58;;;;;;;3.53;2.87;;;6.20;99.90;;;7.04;100.00;98840.44;5035357;28;20229;-62
2021/11/03 04:38:26;;;;;;;3.20;2.90;;;6.30;99.90;;;6.98;100.00;98842.19;5035173;28;20279;-61
2021/11/03 04:40:54;;;;;;;3.00;2.70;;;6.30;99.90;;;7.06;100.00;98833.00;5034954;28;20202;-62
2021/11/03 04:43:22;;;;;;;3.20;2.90;;;6.30;99.90;;;7.19;100.00;98840.81;5035286;28;20300;-61
2021/11/03 04:45:51;;;;;;;4.07;3.00;;;6.40;99.90;;;7.15;100.00;98842.34;5035108;28;20239;-60
2021/11/03 04:48:19;;;;;;;2.90;2.70;;;6.50;99.90;;;7.16;100.00;98842.09;5034951;28;20301;-61
2021/11/03 04:50:49;;;;;;;3.97;3.03;;;6.50;99.90;;;7.27;100.00;98852.00;5035147;28;20208;-61
2021/11/03 04:53:17;;;;;;;4.50;3.20;;;6.50;99.90;;;7.41;100.00;98840.03;5034854;28;20289;-62
2021/11/03 04:55:46;;;;;;;3.70;2.90;;;6.60;99.90;;;7.54;100.00;98848.91;5034665;28;20221;-64
2021/11/03 04:58:15;;;;;;;3.17;2.87;;;6.70;99.90;;;7.79;100.00;98853.00;5035025;28;20232;-62
2021/11/03 05:00:46;;;;;;;3.87;3.03;;;6.80;99.90;;;7.73;100.00;98855.78;5034710;28;20202;-62
2021/11/03 05:03:14;;;;;;;3.40;3.10;;;6.90;99.90;;;7.84;100.00;98863.81;5034621;28;20636;-61
2021/11/03 05:05:43;;;;;;;3.20;2.90;;;7.00;99.90;;;7.83;100.00;98858.69;5034709;28;20281;-62
2021/11/03 05:08:12;;;;;;;3.00;2.70;;;7.10;99.90;;;7.88;100.00;98859.59;5034250;28;20208;-61
2021/11/03 05:10:41;;;;;;;3.70;3.33;;;7.10;99.90;;;8.32;100.00;98859.00;5034634;28;20292;-62
2021/11/03 05:13:09;;;;;;;4.00;3.30;;;7.20;99.90;;;8.32;100.00;98855.50;5034688;28;20637;-61
2021/11/03 05:15:37;;;;;;;4.33;3.03;;;7.40;99.90;;;8.54;100.00;98861.88;5034412;28;20400;-62
2021/11/03 05:18:06;;;;;;;3.63;3.30;;;7.40;99.90;;;8.36;100.00;98848.59;5034674;28;20265;-62
2021/11/03 05:20:34;;;;;;;3.43;3.13;;;7.50;99.90;;;8.33;100.00;98841.03;5034524;28;20306;-61
2021/11/03 05:23:02;;;;;;;4.73;3.03;;;7.50;99.90;;;8.40;100.00;98849.78;5034420;28;20623;-62
2021/11/03 05:25:32;;;;;;;3.43;3.13;;;7.60;99.90;;;8.60;100.00;98842.13;5034462;28;20312;-62
2021/11/03 05:28:01;;;;;;;5.37;3.50;;;7.60;99.90;;;8.58;100.00;98845.03;5034318;28;20237;-62
2021/11/03 05:30:30;;;;;;;3.57;3.00;;;7.70;99.90;;;8.70;100.00;98844.16;5034113;28;20244;-62
2021/11/03 05:32:59;;;;;;;5.37;3.10;;;7.70;99.90;;;8.48;100.00;98849.38;5034238;28;20202;-61
2021/11/03 05:35:27;;;;;;;4.83;3.83;;;7.70;99.90;;;8.50;100.00;98849.97;5033837;28;20678;-61
2021/11/03 05:37:56;;;;;;;4.37;3.30;;;7.70;99.90;;;8.53;100.00;98847.63;5034059;28;20208;-61
2021/11/03 05:40:27;;;;;;;4.37;3.57;;;7.70;99.90;;;8.66;100.00;98849.19;5033685;28;20757;-66
2021/11/03 05:42:58;;;;;;;3.30;3.00;;;7.70;99.90;;;8.88;100.00;98854.72;5034052;28;20217;-67
2021/11/03 05:45:28;;;;;;;4.53;3.87;;;7.80;99.90;;;8.72;100.00;98859.00;5033961;28;20190;-66
2021/11/03 05:47:56;;;;;;;3.50;3.20;;;7.70;99.90;;;8.87;100.00;98855.78;5034445;28;20222;-67
2021/11/03 05:50:32;;;;;;;4.10;3.40;;;7.80;99.90;;;8.60;100.00;98859.03;5033914;28;20198;-66
2021/11/03 05:53:01;;;;;;;3.50;3.20;;;7.90;99.90;;;8.42;100.00;98866.44;5033773;28;20209;-67
2021/11/03 05:55:29;;;;;;;4.53;3.60;;;7.80;99.90;;;8.44;100.00;98865.16;5033517;28;20258;-66
2021/11/03 05:57:59;;;;;;;3.73;3.37;;;7.80;99.90;;;8.60;100.00;98872.47;5033415;28;20249;-66
2021/11/03 06:00:31;;;;;;;3.60;3.30;;;7.80;99.90;;;8.66;100.00;98868.00;5033359;28;20706;-66
2021/11/03 06:03:01;;;;;;;4.33;3.70;;;7.90;99.90;;;8.58;100.00;98868.38;5033545;28;20600;-67
2021/11/03 06:05:30;;;;;;;3.77;3.30;;;7.80;99.90;;;8.59;100.00;98870.81;5033422;28;20642;-66
2021/11/03 06:08:01;;;;;;;4.27;3.20;;;7.80;99.90;;;8.44;100.00;98875.88;5033244;28;20692;-65
2021/11/03 06:10:40;;;;;;;4.50;3.43;;;7.80;99.90;;;8.43;100.00;98873.44;5033721;28;20183;-67
2021/11/03 06:13:12;;;;;;;4.87;3.40;;;;;;;8.53;100.00;98887.06;5033711;28;20194;-66
2021/11/03 06:15:40;;;;;;;3.77;3.47;;;6.90;99.90;;;8.68;100.00;98889.25;5033403;28;20317;-66
2021/11/03 06:18:10;;;;;;;3.40;3.10;;;7.70;99.90;;;8.71;100.00;98892.25;5033066;28;20233;-66
2021/11/03 06:20:38;;;;;;;4.23;3.60;;;7.70;99.90;;;8.61;100.00;98887.50;5033076;28;20202;-66
2021/11/03 06:23:06;;;;;;;3.50;3.20;;;7.70;99.90;;;8.54;100.00;98889.50;5033264;28;20271;-65
2021/11/03 06:25:35;;;;;;;5.17;3.63;;;7.70;99.90;;;8.77;100.00;98899.38;5033134;28;20297;-66
2021/11/03 06:28:05;;;;;;;5.10;3.50;;;7.70;99.90;;;9.10;100.00;98896.75;5033229;28;20212;-66
2021/11/03 06:30:38;;;;;;;4.40;4.00;;;7.80;99.90;;;9.03;100.00;98897.97;5032625;28;20245;-66
2021/11/03 06:33:07;;;;;;;4.20;3.60;;;7.90;99.90;;;8.81;100.00;98897.03;5029810;28;20183;-66
2021/11/03 06:35:37;;;;;;;4.00;3.60;;;8.00;99.90;;;8.71;100.00;98896.81;5014306;28;20306;-66
2021/11/03 06:38:09;;;;;;;5.43;3.93;;;7.90;99.90;;;8.77;100.00;98899.38;5013442;28;20284;-66
2021/11/03 06:40:38;;;;;;;5.23;3.87;;;7.90;99.90;;;8.81;100.00;98900.50;5013144;28;20662;-67
2021/11/03 06:43:06;;;;;;;4.27;3.87;;;7.90;99.90;;;8.91;100.00;98903.41;5013334;28;20210;-66
2021/11/03 06:45:36;;;;;;;5.30;3.87;;;7.90;99.90;;;8.94;100.00;98897.56;5013172;28;20213;-67
2021/11/03 06:48:05;;;;;;;4.30;3.90;;;7.90;99.90;;;8.68;100.00;98900.78;5013404;28;20297;-66
2021/11/03 06:50:37;;;;;;;4.27;3.87;;;7.90;99.90;;;8.64;100.00;98899.66;5013150;28;20209;-66
2021/11/03 06:53:11;;;;;;;4.37;3.97;;;7.90;99.90;;;8.53;100.00;98905.84;5013089;28;20203;-66
2021/11/03 06:55:40;;;;;;;5.40;4.90;;;7.80;99.90;;;8.91;100.00;98907.94;5013003;28;20302;-66
2021/11/03 06:58:09;;;;;;;6.40;5.23;;;7.90;99.90;;;9.08;100.00;98914.19;5013271;28;20191;-66
2021/11/03 07:00:43;;;;;;;7.47;4.50;;;7.90;99.90;;;8.95;100.00;98909.09;5018436;28;20285;-65
2021/11/03 07:03:12;;;;;;;5.40;4.90;;;8.00;99.90;;;8.86;100.00;98903.31;5032300;28;20557;-65
2021/11/03 07:05:45;;;;;;;5.10;4.60;;;8.00;99.90;;;8.95;100.00;98917.97;5032763;28;20292;-67
2021/11/03 07:08:14;;;;;;;5.13;4.70;;;8.00;99.90;;;8.84;100.00;98910.78;5032721;28;20269;-66
2021/11/03 07:10:46;;;;;;;6.13;4.50;;;8.00;99.90;;;9.01;100.00;98914.34;5032440;28;20302;-65
2021/11/03 07:13:16;;;;;;;5.50;4.67;;;8.00;99.90;;;8.95;100.00;98919.81;5032527;28;20187;-66
2021/11/03 07:15:47;;;;;;;5.80;5.20;;;8.00;99.90;;;9.06;100.00;98930.56;5032267;28;20903;-66
2021/11/03 07:18:16;;;;;;;6.30;4.70;;;8.00;99.90;;;9.34;100.00;98927.84;5032662;28;20275;-66
2021/11/03 07:20:45;;;;;;;5.30;4.80;;;8.20;99.90;;;9.25;100.00;98929.28;5032259;28;20297;-66
2021/11/03 07:23:17;;;;;;;5.40;4.47;;;8.20;99.90;;;9.48;100.00;98928.34;5032577;28;20226;-66
2021/11/03 07:25:46;;;;;;;5.33;4.83;;;8.40;99.90;;;9.65;100.00;98932.69;5032646;28;20700;-66
2021/11/03 07:28:15;;;;;;;5.27;4.77;;;8.50;99.90;;;9.64;100.00;98939.09;5032519;28;20284;-66
2021/11/03 07:30:44;;;;;;;5.53;4.90;;;8.60;99.90;;;9.79;100.00;98938.56;5034488;28;20300;-66
2021/11/03 07:33:15;;;;;;;5.30;4.80;;;8.70;99.90;;;9.95;100.00;98939.59;5036301;28;20295;-67
2021/11/03 07:35:44;;;;;;;6.23;5.07;;;8.80;99.90;;;10.14;100.00;98938.31;5036265;28;20300;-66
2021/11/03 07:38:14;;;;;;;4.83;4.37;;;8.80;99.90;;;9.94;100.00;98935.28;5036381;28;20300;-68
2021/11/03 07:40:45;;;;;;;5.50;4.93;;;8.90;99.90;;;10.08;100.00;98933.91;5036235;28;20208;-67
2021/11/03 07:43:16;;;;;;;7.03;5.57;;;9.00;99.90;;;10.11;100.00;98936.13;5037304;28;20612;-67
2021/11/03 07:45:46;;;;;;;5.57;5.07;;;9.10;99.90;;;10.30;100.00;98937.47;5036035;28;20631;-66
2021/11/03 07:48:16;;;;;;;5.50;5.00;;;9.30;99.90;;;10.57;100.00;98933.00;5036426;28;20229;-67
2021/11/03 07:50:51;;;;;;;5.63;5.03;;;9.40;99.90;;;10.68;100.00;98923.97;5036248;28;20315;-66
2021/11/03 07:53:21;;;;;;;7.07;4.63;;;9.40;99.90;;;10.90;100.00;98927.47;5036134;28;20276;-67
2021/11/03 07:55:54;;;;;;;6.13;4.90;;;9.70;99.90;;;10.87;100.00;98928.00;5035989;28;20368;-67
2021/11/03 07:58:25;;;;;;;6.63;4.83;;;9.80;99.90;;;10.82;100.00;98923.34;5035892;28;20604;-67
2021/11/03 08:00:55;;;;;;;5.53;5.03;;;9.80;99.90;;;10.93;100.00;98916.19;5035969;28;20217;-67
2021/11/03 08:03:27;;;;;;;5.57;5.07;;;9.80;99.90;;;10.98;100.00;98916.25;5036024;28;20197;-67
2021/11/03 08:05:56;;;;;;;5.10;4.60;;;9.90;99.90;;;11.18;100.00;98913.78;5035905;28;20178;-67
2021/11/03 08:08:30;;;;;;;5.40;4.83;;;10.00;99.90;;;11.26;100.00;98907.94;5035499;28;20668;-67
2021/11/03 08:10:59;;;;;;;4.77;4.37;;;10.20;99.90;;;11.58;100.00;98913.34;5035937;28;20191;-67
2021/11/03 08:13:31;;;;;;;5.27;4.77;;;10.40;99.90;;;11.79;100.00;98915.16;5035776;28;20285;-68
2021/11/03 08:16:02;;;;;;;5.37;4.83;;;10.50;99.90;;;11.94;100.00;98915.31;5035385;28;20208;-66
2021/11/03 08:18:35;;;;;;;4.53;4.13;;;10.70;99.90;;;12.12;100.00;98912.19;5035564;28;20186;-66
2021/11/03 08:21:04;;;;;;;6.33;4.70;;;10.90;99.90;;;12.10;100.00;98911.63;5035463;28;20642;-66
2021/11/03 08:23:33;;;;;;;5.20;4.70;;;10.90;99.90;;;12.04;100.00;98910.78;5035288;28;20570;-68
2021/11/03 08:26:01;;;;;;;5.03;4.53;;;10.80;99.90;;;12.09;100.00;98907.31;5035553;28;20202;-68
2021/11/03 08:28:29;;;;;;;5.30;4.80;;;10.80;99.90;;;12.13;100.00;98909.22;5035452;28;20209;-66
2021/11/03 08:30:58;;;;;;;5.30;4.80;;;10.80;99.90;;;12.24;99.86;98900.09;5034921;28;20689;-67
2021/11/03 08:33:35;;;;;;;5.40;4.90;;;10.80;99.90;;;12.37;99.08;98908.81;5035266;28;20571;-65
2021/11/03 08:36:06;;;;;;;5.27;4.77;;;11.10;99.90;;;12.57;98.50;98904.34;5035255;28;20296;-68
2021/11/03 08:38:54;;;;;;;4.80;4.40;;;11.20;99.90;;;12.55;98.07;98903.78;5034834;28;20183;-66
2021/11/03 08:41:23;;;;;;;5.63;5.10;;;11.30;99.90;;;12.43;97.28;98896.97;5034571;28;20717;-67
2021/11/03 08:43:51;;;;;;;4.50;4.10;;;11.30;99.90;;;12.59;96.58;98885.16;5035017;28;20245;-66
2021/11/03 08:46:20;;;;;;;4.80;4.40;;;11.30;99.90;;;12.72;95.68;98898.22;5034921;28;20317;-66
2021/11/03 08:48:52;;;;;;;4.50;4.10;;;11.40;99.90;;;12.92;96.33;98899.06;5035151;28;20236;-67
2021/11/03 08:51:20;;;;;;;4.50;4.10;;;11.50;99.90;;;13.04;95.81;98894.28;5035073;28;20273;-66
2021/11/03 08:53:53;;;;;;;4.70;4.30;;;11.60;99.90;;;13.36;92.21;98897.59;5034876;28;20186;-66
2021/11/03 08:56:22;;;;;;;4.77;4.37;;;11.80;99.90;;;13.20;93.89;98901.34;5034731;28;20284;-66
2021/11/03 08:58:51;;;;;;;5.00;4.50;;;11.90;99.90;;;13.38;93.05;98894.59;5034850;28;20267;-65
2021/11/03 09:01:20;;;;;;;4.40;4.00;;;12.00;99.90;;;13.53;93.15;98905.44;5034316;28;20712;-66
2021/11/03 09:03:51;;;;;;;4.17;3.77;;;12.20;99.90;;;13.75;90.76;98900.56;5034836;28;20206;-66
2021/11/03 09:06:19;;;;;;;4.63;4.20;;;12.40;99.90;;;13.81;89.78;98898.69;5034887;28;20273;-66
2021/11/03 09:08:49;;;;;;;4.30;3.90;;;12.50;99.90;;;13.97;89.46;98901.13;5034651;28;20213;-66
2021/11/03 09:11:20;;;;;;;4.00;3.70;;;12.50;99.90;;;13.94;89.52;98898.97;5034675;28;20208;-66
2021/11/03 09:13:49;;;;;;;4.28;3.60;;;12.60;99.90;;;13.87;88.57;98897.63;5034340;28;20229;-66
2021/11/03 09:16:19;;;;;;;4.30;3.90;;;12.50;99.90;;;13.41;90.36;98902.22;5034068;28;20229;-65
2021/11/03 09:18:48;;;;;;;4.60;3.57;;;12.20;99.90;;;13.19;92.92;98907.03;5034506;28;20198;-66
2021/11/03 09:21:21;;;;;;;3.80;3.50;;;12.00;99.90;;;13.00;94.19;98905.88;5034685;28;20240;-66
2021/11/03 09:23:50;;;;;;;3.50;3.20;;;11.90;99.90;;;12.89;94.59;98904.19;5034475;28;20197;-66
2021/11/03 09:26:21;;;;;;;3.42;3.13;;;11.80;99.90;;;12.61;96.42;98912.72;5034437;28;20221;-66
2021/11/03 09:28:51;;;;;;;3.73;3.43;;;11.70;99.90;;;12.53;97.44;98908.66;5034428;28;20349;-65
2021/11/03 09:31:19;;;;;;;3.20;2.90;;;11.60;99.90;;;12.50;96.98;98919.97;5034434;28;20260;-66
2021/11/03 09:33:48;;;;;;;3.37;3.07;;;11.60;99.90;;;12.58;95.70;98913.25;5034336;28;20249;-66
2021/11/03 09:36:21;;;;;;;3.00;2.80;;;11.60;99.90;;;12.84;93.76;98912.28;5033419;28;20764;-66
2021/11/03 09:38:51;;;;;;;3.27;2.97;;;11.60;99.90;;;12.72;94.86;98904.41;5033649;28;20206;-65
2021/11/03 09:41:25;;;;;;;2.90;2.70;;;11.60;99.90;;;12.72;95.47;98898.22;5033956;28;20237;-66
2021/11/03 09:43:58;;;;;;;3.10;2.90;;;11.70;99.90;;;12.70;95.35;98900.34;5033826;28;20192;-66
2021/11/03 09:46:34;;;;;;;2.90;2.70;;;11.60;99.90;;;12.71;95.34;98900.09;5033880;28;20274;-67
2021/11/03 09:49:18;;;;;;;2.87;2.57;;;11.70;99.90;;;12.70;94.99;98916.56;5034021;28;20185;-66
2021/11/03 09:51:58;;;;;;;3.20;2.90;;;11.80;99.90;;;12.87;93.20;98907.16;5021384;28;20202;-66
2021/11/03 09:54:30;;;;;;;2.60;2.40;;;11.80;99.90;;;12.95;89.36;98903.16;5025829;28;20236;-66
2021/11/03 09:57:17;;;;;;;3.00;2.60;;;11.80;99.90;;;13.01;89.33;98900.22;5033357;28;20604;-64
2021/11/03 09:59:56;;;;;;;3.53;2.80;;;11.90;99.90;;;12.75;91.33;98898.47;5033756;28;20224;-66
2021/11/03 10:02:39;;;;;;;2.90;2.70;;;11.80;99.90;;;12.87;90.39;98903.66;5034061;28;20285;-67
2021/11/03 10:05:25;;;;;;;4.55;2.88;;;11.70;99.90;;;12.85;91.90;98893.13;5033503;28;20556;-66
2021/11/03 10:08:02;;;;;;;3.60;3.30;;;11.80;99.90;;;12.98;92.20;98900.72;5033321;28;20229;-66
2021/11/03 10:10:34;;;;;;;3.80;3.00;;;11.90;99.90;;;13.03;93.03;98899.94;5033349;28;20277;-67
2021/11/03 10:13:24;;;;;;;3.13;2.83;;;11.90;99.90;;;13.05;92.24;98895.09;5033691;28;20186;-66
2021/11/03 10:16:02;;;;;;;3.33;3.03;;;12.10;99.90;;;13.27;91.82;98879.47;5033141;28;20805;-66
2021/11/03 10:18:34;;;;;;;4.20;3.33;;;12.10;99.90;;;13.25;91.47;98882.44;5033583;28;20213;-66
2021/11/03 10:21:19;;;;;;;4.22;3.55;;;12.20;99.90;;;13.35;91.41;98889.75;5033440;28;20204;-66
2021/11/03 10:23:57;;;;;;;4.23;3.13;;;12.30;99.90;;;13.66;89.78;98877.88;5033590;28;20273;-66
2021/11/03 10:26:30;;;;;;;3.45;3.13;;;12.50;99.90;;;13.50;90.22;98878.94;5033656;28;20205;-66
2021/11/03 10:29:15;;;;;;;4.40;3.20;;;12.40;99.90;;;13.55;89.90;98875.44;5033093;28;20285;-66
2021/11/03 10:31:49;;;;;;;3.70;3.40;;;12.50;99.90;;;13.50;89.87;98861.91;5033001;28;20232;-65
2021/11/03 10:34:27;;;;;;;3.60;3.30;;;12.50;99.90;;;13.29;91.67;98867.28;5033376;28;20277;-66
2021/11/03 10:37:12;;;;;;;4.47;2.87;;;12.50;99.90;;;13.08;91.73;98860.22;5032863;28;20296;-66
2021/11/03 10:39:56;;;;;;;2.60;2.40;;;12.30;99.90;;;12.89;91.69;98850.94;5033044;28;20281;-65
2021/11/03 10:42:30;;;;;;;3.03;2.73;;;12.20;99.90;;;13.10;92.39;98843.72;5033272;28;20225;-67